Time;durP1;ratioP1;P1;durP2;ratioP2;P2;SDS_P1;SDS_P2;PMS_P1;PMS_P2;Temp;Humidity;BMP_temperature;BMP_pressure;BME280_temperature;BME280_humidity;BME280_pressure;Samples;Min_cycle;Max_cycle;Signal;HPM_P1;HPM_P2
2020/12/15 00:00:51;;;;;;;;;;;;;;;22.05;41.83;99942.31;3131534;27;114682;-61
2020/12/15 00:02:22;;;;;;;;;;;;;;;22.03;41.78;99945.44;3132404;27;114514;-59
2020/12/15 00:03:53;;;;;;;;;;;;;;;22.03;41.74;99942.63;3134532;27;114938;-58
2020/12/15 00:05:24;;;;;;;;;;;;;;;22.02;41.72;99945.81;3129395;27;114201;-59
2020/12/15 00:06:55;;;;;;;;;;;;;;;22.01;41.96;99946.97;3132133;27;115046;-59
2020/12/15 00:08:27;;;;;;;;;;;;;;;22.00;41.85;99943.34;3129679;27;114757;-59
2020/12/15 00:09:58;;;;;;;;;;;;;;;21.99;42.03;99949.28;3132347;27;114173;-59
2020/12/15 00:11:29;;;;;;;;;;;;;;;21.98;42.00;99939.22;3132337;27;115968;-59
2020/12/15 00:13:00;;;;;;;;;;;;;;;21.96;41.93;99941.56;3131329;27;115926;-59
2020/12/15 00:14:32;;;;;;;;;;;;;;;21.96;41.97;99947.19;3131981;27;115139;-59
2020/12/15 00:16:06;;;;;;;;;;;;;;;21.95;42.13;99949.16;3129130;27;114198;-59
2020/12/15 00:17:37;;;;;;;;;;;;;;;21.94;41.94;99946.72;3131436;27;114181;-59
2020/12/15 00:19:10;;;;;;;;;;;;;;;21.92;42.24;99943.38;3131466;27;114130;-59
2020/12/15 00:20:41;;;;;;;;;;;;;;;21.92;42.01;99949.00;3132191;27;115148;-59
2020/12/15 00:22:12;;;;;;;;;;;;;;;21.90;41.97;99942.88;3132162;27;114930;-59
2020/12/15 00:23:43;;;;;;;;;;;;;;;21.89;41.96;99944.06;3130130;27;114595;-59
2020/12/15 00:25:14;;;;;;;;;;;;;;;21.88;42.27;99945.22;3121341;27;114213;-59
2020/12/15 00:26:45;;;;;;;;;;;;;;;21.86;42.04;99942.75;3127345;27;114770;-59
2020/12/15 00:28:16;;;;;;;;;;;;;;;21.84;42.14;99947.91;3133219;27;114790;-59
2020/12/15 00:29:47;;;;;;;;;;;;;;;21.91;42.24;99944.53;3132067;27;114806;-59
2020/12/15 00:31:19;;;;;;;;;;;;;;;21.88;42.48;99940.44;3133201;27;114665;-59
2020/12/15 00:32:50;;;;;;;;;;;;;;;21.88;42.18;99945.22;3134017;27;115814;-58
2020/12/15 00:34:21;;;;;;;;;;;;;;;21.87;42.17;99946.38;3133743;27;117357;-57
2020/12/15 00:35:54;;;;;;;;;;;;;;;21.86;42.26;99941.91;3133006;27;115169;-58
2020/12/15 00:37:25;;;;;;;;;;;;;;;21.84;42.29;99944.25;3134272;27;115796;-59
2020/12/15 00:38:56;;;;;;;;;;;;;;;21.84;42.25;99941.44;3129009;27;115901;-59
2020/12/15 00:40:27;;;;;;;;;;;;;;;21.82;42.26;99952.22;3133469;27;115972;-59
2020/12/15 00:41:58;;;;;;;;;;;;;;;21.82;42.47;99955.00;3134501;27;117312;-59
2020/12/15 00:43:29;;;;;;;;;;;;;;;21.79;42.35;99959.34;3118484;27;116378;-59
2020/12/15 00:45:04;;;;;;;;;;;;;;;21.79;42.40;99961.34;3129926;27;115982;-58
2020/12/15 00:46:35;;;;;;;;;;;;;;;21.76;42.67;99962.81;3132353;27;114624;-59
2020/12/15 00:48:06;;;;;;;;;;;;;;;21.76;42.40;99962.03;3136002;27;114574;-58
2020/12/15 00:49:38;;;;;;;;;;;;;;;21.75;42.78;99961.19;3132999;27;113848;-59
2020/12/15 00:51:16;;;;;;;;;;;;;;;21.73;42.63;99961.53;3133414;27;114528;-59
2020/12/15 00:52:47;;;;;;;;;;;;;;;21.72;42.95;99961.84;3119088;27;113896;-59
2020/12/15 00:54:18;;;;;;;;;;;;;;;21.70;42.79;99955.78;3127752;27;114374;-59
2020/12/15 00:55:49;;;;;;;;;;;;;;;21.69;42.97;99962.56;3133547;27;114155;-59
2020/12/15 00:57:20;;;;;;;;;;;;;;;21.67;42.79;99974.13;3133993;27;114052;-59
2020/12/15 00:58:51;;;;;;;;;;;;;;;21.66;43.17;99969.69;3133251;27;113904;-58
2020/12/15 01:00:23;;;;;;;;;;;;;;;21.64;43.07;99966.38;3133167;27;114559;-59
2020/12/15 01:02:00;;;;;;;;;;;;;;;21.64;43.12;99963.56;3135855;27;113817;-59
2020/12/15 01:03:31;;;;;;;;;;;;;;;21.61;43.32;99963.44;3121223;27;115187;-59
2020/12/15 01:05:03;;;;;;;;;;;;;;;21.60;43.29;99965.41;3131800;27;113961;-59
2020/12/15 01:06:34;;;;;;;;;;;;;;;21.59;43.59;99960.13;3135704;27;114734;-60
2020/12/15 01:08:05;;;;;;;;;;;;;;;21.59;43.33;99960.13;3135311;27;114138;-61
2020/12/15 01:09:36;;;;;;;;;;;;;;;21.57;43.81;99942.78;3137738;27;114368;-60
2020/12/15 01:11:07;;;;;;;;;;;;;;;21.56;43.62;99956.03;3136110;27;115142;-60
2020/12/15 01:12:38;;;;;;;;;;;;;;;21.55;43.76;99954.38;3135099;27;114843;-60
2020/12/15 01:14:10;;;;;;;;;;;;;;;21.54;44.09;99954.69;3134408;27;115484;-60
2020/12/15 01:15:42;;;;;;;;;;;;;;;21.53;43.77;99958.69;3135664;27;115627;-59
2020/12/15 01:17:15;;;;;;;;;;;;;;;21.52;44.02;99957.88;3134729;27;115218;-59
2020/12/15 01:18:46;;;;;;;;;;;;;;;21.51;43.79;99959.03;3135063;27;114275;-60
2020/12/15 01:20:17;;;;;;;;;;;;;;;21.49;43.94;99958.53;3136135;27;115339;-60
2020/12/15 01:21:48;;;;;;;;;;;;;;;21.48;43.99;99959.72;3121364;27;114660;-60
2020/12/15 01:23:19;;;;;;;;;;;;;;;21.46;43.85;99953.59;3130435;27;115116;-60
2020/12/15 01:24:50;;;;;;;;;;;;;;;21.45;43.97;99956.72;3135555;27;114435;-60
2020/12/15 01:26:21;;;;;;;;;;;;;;;21.43;43.82;99959.91;3136137;27;114522;-60
2020/12/15 01:27:52;;;;;;;;;;;;;;;21.44;43.82;99957.91;3135732;27;114291;-60
2020/12/15 01:29:23;;;;;;;;;;;;;;;21.43;43.94;99959.06;3135219;27;114810;-59
2020/12/15 01:30:54;;;;;;;;;;;;;;;21.40;44.38;99962.53;3139274;27;114271;-59
2020/12/15 01:32:25;;;;;;;;;;;;;;;21.39;44.18;99958.09;3136531;27;114819;-59
2020/12/15 01:33:57;;;;;;;;;;;;;;;21.38;44.31;99953.63;3134944;27;115709;-59
2020/12/15 01:35:28;;;;;;;;;;;;;;;21.35;44.14;99957.94;3135822;27;115375;-59
2020/12/15 01:37:02;;;;;;;;;;;;;;;21.31;44.43;99956.97;3135910;27;114675;-59
2020/12/15 01:38:33;;;;;;;;;;;;;;;21.33;44.09;99960.28;3134175;27;114467;-59
2020/12/15 01:40:04;;;;;;;;;;;;;;;21.29;44.36;99965.75;3135990;27;115209;-59
2020/12/15 01:41:35;;;;;;;;;;;;;;;21.28;44.57;99971.69;3122051;27;116331;-60
2020/12/15 01:43:06;;;;;;;;;;;;;;;21.25;44.20;99966.75;3131683;27;115889;-59
2020/12/15 01:44:37;;;;;;;;;;;;;;;21.24;44.58;99960.31;3134873;27;114980;-59
2020/12/15 01:46:14;;;;;;;;;;;;;;;21.23;44.54;99966.25;3135598;27;116167;-60
2020/12/15 01:47:45;;;;;;;;;;;;;;;21.22;44.53;99967.41;3122693;27;116332;-60
2020/12/15 01:49:20;;;;;;;;;;;;;;;21.21;44.39;99975.00;3119825;27;114750;-59
2020/12/15 01:50:51;;;;;;;;;;;;;;;21.22;44.29;99971.06;3133774;27;114748;-59
2020/12/15 01:52:22;;;;;;;;;;;;;;;21.20;44.61;99976.19;3139253;27;115761;-59
2020/12/15 01:53:58;;;;;;;;;;;;;;;21.19;44.55;99971.72;3119887;27;114739;-60
2020/12/15 01:55:29;;;;;;;;;;;;;;;21.18;44.53;99977.69;3132022;27;114351;-59
2020/12/15 01:57:01;;;;;;;;;;;;;;;21.15;44.38;99972.75;3135104;27;113832;-59
2020/12/15 01:58:33;;;;;;;;;;;;;;;21.14;44.41;99974.72;3135220;27;114595;-59
2020/12/15 02:00:04;;;;;;;;;;;;;;;21.14;44.71;99979.50;3136320;27;114068;-59
2020/12/15 02:01:45;;;;;;;;;;;;;;;21.11;44.48;99972.56;3135112;27;114373;-59
2020/12/15 02:03:17;;;;;;;;;;;;;;;21.13;44.67;99980.66;3136039;27;114020;-59
2020/12/15 02:04:48;;;;;;;;;;;;;;;21.12;44.66;99979.00;3135130;27;114882;-59
2020/12/15 02:06:20;;;;;;;;;;;;;;;21.09;44.69;99974.88;3135121;27;114263;-59
2020/12/15 02:07:51;;;;;;;;;;;;;;;21.08;44.77;99987.25;3135549;27;114324;-59
2020/12/15 02:09:22;;;;;;;;;;;;;;;21.08;44.72;99983.63;3134381;27;114196;-59
2020/12/15 02:10:53;;;;;;;;;;;;;;;21.06;44.73;99992.41;3122384;27;114190;-59
2020/12/15 02:12:25;;;;;;;;;;;;;;;21.06;44.77;100000.00;3131042;27;114362;-59
2020/12/15 02:13:56;;;;;;;;;;;;;;;21.05;44.60;99998.34;3134184;27;114052;-58
2020/12/15 02:15:27;;;;;;;;;;;;;;;21.04;44.90;99999.50;3139454;27;114071;-59
2020/12/15 02:16:59;;;;;;;;;;;;;;;21.04;44.97;100005.13;3135559;27;114780;-58
2020/12/15 02:18:30;;;;;;;;;;;;;;;21.04;44.93;100003.13;3134884;27;114428;-58
2020/12/15 02:20:08;;;;;;;;;;;;;;;21.02;44.99;100002.66;3136063;27;114145;-58
2020/12/15 02:22:05;;;;;;;;;;;;;;;21.02;44.93;100001.84;3135047;27;114161;-58
2020/12/15 02:23:36;;;;;;;;;;;;;;;21.00;45.15;100001.34;3131000;27;115602;-58
2020/12/15 02:25:09;;;;;;;;;;;;;;;20.97;44.91;100000.03;3135843;27;115168;-58
2020/12/15 02:26:40;;;;;;;;;;;;;;;21.05;45.03;100006.78;3122293;27;114914;-60
2020/12/15 02:28:12;;;;;;;;;;;;;;;21.03;45.02;100000.69;3130722;27;114181;-60
2020/12/15 02:29:43;;;;;;;;;;;;;;;20.98;45.43;99998.88;3135082;27;115154;-60
2020/12/15 02:31:14;;;;;;;;;;;;;;;20.98;45.31;99998.06;3135100;27;115307;-58
2020/12/15 02:32:45;;;;;;;;;;;;;;;20.97;45.14;100002.00;3135578;27;114365;-58
2020/12/15 02:34:16;;;;;;;;;;;;;;;20.93;45.19;100001.88;3135893;27;115267;-59
2020/12/15 02:35:48;;;;;;;;;;;;;;;20.92;45.57;100005.81;3133473;27;114287;-59
2020/12/15 02:37:19;;;;;;;;;;;;;;;20.93;45.50;100001.03;3139555;27;115176;-59
2020/12/15 02:38:50;;;;;;;;;;;;;;;20.92;45.57;99999.38;3133458;27;115758;-60
2020/12/15 02:40:21;;;;;;;;;;;;;;;20.89;45.30;99991.63;3121833;27;115139;-59
2020/12/15 02:41:53;;;;;;;;;;;;;;;20.89;45.45;99994.44;3129284;27;115663;-59
2020/12/15 02:43:24;;;;;;;;;;;;;;;20.85;45.42;99997.91;3134440;27;115892;-59
2020/12/15 02:44:55;;;;;;;;;;;;;;;20.85;45.57;99997.91;3134666;27;115964;-59
2020/12/15 02:46:26;;;;;;;;;;;;;;;20.85;45.45;100002.69;3135253;27;115911;-60
2020/12/15 02:47:57;;;;;;;;;;;;;;;20.83;45.66;100007.81;3123560;27;114998;-59
2020/12/15 02:49:28;;;;;;;;;;;;;;;20.82;45.63;100006.16;3135533;27;115686;-59
2020/12/15 02:50:59;;;;;;;;;;;;;;;20.79;45.83;100007.69;3135178;27;114641;-58
2020/12/15 02:52:30;;;;;;;;;;;;;;;20.80;45.73;100002.88;3135408;27;118436;-59
2020/12/15 02:54:01;;;;;;;;;;;;;;;20.81;46.06;100004.50;3134089;27;114838;-59
2020/12/15 02:55:33;;;;;;;;;;;;;;;20.80;45.71;100014.91;3136209;27;115173;-59
2020/12/15 02:57:04;;;;;;;;;;;;;;;20.78;45.68;100013.63;3137091;27;114905;-60
2020/12/15 02:58:35;;;;;;;;;;;;;;;20.76;45.85;100011.13;3137800;27;114153;-59
2020/12/15 03:00:08;;;;;;;;;;;;;;;20.75;45.84;100011.47;3136036;27;114268;-60
2020/12/15 03:01:40;;;;;;;;;;;;;;;20.75;46.03;100011.47;3135348;27;113801;-60
2020/12/15 03:03:11;;;;;;;;;;;;;;;20.74;46.21;100016.25;3136574;27;114090;-63
2020/12/15 03:04:42;;;;;;;;;;;;;;;20.74;46.04;100024.69;3135515;27;114179;-60
2020/12/15 03:06:13;;;;;;;;;;;;;;;20.72;46.33;100024.19;3135217;27;114015;-60
2020/12/15 03:07:44;;;;;;;;;;;;;;;20.72;46.27;100027.00;3134660;27;113972;-60
2020/12/15 03:09:15;;;;;;;;;;;;;;;20.71;46.21;100039.41;3134440;27;114618;-58
2020/12/15 03:10:47;;;;;;;;;;;;;;;20.70;46.05;100031.31;3134432;27;114383;-60
2020/12/15 03:12:21;;;;;;;;;;;;;;;20.69;46.57;100019.25;3135684;27;114486;-58
2020/12/15 03:13:53;;;;;;;;;;;;;;;20.69;46.36;100021.22;3133965;27;114759;-54
2020/12/15 03:15:24;;;;;;;;;;;;;;;20.69;46.33;100019.25;3134051;27;114174;-55
2020/12/15 03:16:55;;;;;;;;;;;;;;;20.67;46.46;100027.16;3135194;27;114278;-55
2020/12/15 03:18:28;;;;;;;;;;;;;;;20.67;46.30;100015.94;3129355;27;114113;-54
2020/12/15 03:19:59;;;;;;;;;;;;;;;20.65;46.31;100021.06;3132653;27;113834;-53
2020/12/15 03:21:35;;;;;;;;;;;;;;;20.66;46.61;100019.09;3134261;27;114199;-53
2020/12/15 03:23:06;;;;;;;;;;;;;;;20.65;46.48;100025.84;3119595;27;114385;-53
2020/12/15 03:24:37;;;;;;;;;;;;;;;20.63;46.70;100026.16;3125183;27;114978;-53
2020/12/15 03:26:09;;;;;;;;;;;;;;;20.63;46.76;100019.72;3134212;27;114048;-53
2020/12/15 03:27:40;;;;;;;;;;;;;;;20.64;46.74;100024.19;3133666;27;114470;-53
2020/12/15 03:29:11;;;;;;;;;;;;;;;20.63;46.62;100030.97;3132933;27;114685;-54
2020/12/15 03:30:43;;;;;;;;;;;;;;;20.63;46.70;100028.16;3133888;27;114254;-55
2020/12/15 03:32:14;;;;;;;;;;;;;;;20.61;46.58;100028.50;3135764;27;116570;-54
2020/12/15 03:33:47;;;;;;;;;;;;;;;20.61;46.34;100028.50;3134185;27;114937;-55
2020/12/15 03:35:18;;;;;;;;;;;;;;;20.58;46.68;100031.94;3126287;27;114178;-55
2020/12/15 03:36:49;;;;;;;;;;;;;;;20.56;46.49;100028.66;3134907;27;115086;-55
2020/12/15 03:38:20;;;;;;;;;;;;;;;20.56;46.73;100030.66;3123046;27;114195;-55
2020/12/15 03:39:51;;;;;;;;;;;;;;;20.53;46.69;100023.72;3130529;27;114830;-55
2020/12/15 03:41:35;;;;;;;;;;;;;;;20.55;46.73;100037.41;3137718;27;114168;-55
2020/12/15 03:43:06;;;;;;;;;;;;;;;20.54;46.76;100036.59;3134728;27;116277;-54
2020/12/15 03:44:37;;;;;;;;;;;;;;;20.52;46.82;100033.28;3132301;27;114676;-55
2020/12/15 03:46:08;;;;;;;;;;;;;;;20.54;46.54;100028.16;3127734;27;115218;-54
2020/12/15 03:47:40;;;;;;;;;;;;;;;20.50;46.75;100024.38;3134610;27;114901;-55
2020/12/15 03:49:11;;;;;;;;;;;;;;;20.48;47.09;100035.13;3133767;27;115431;-55
2020/12/15 03:50:43;;;;;;;;;;;;;;;20.51;46.99;100039.22;3134877;27;115041;-55
2020/12/15 03:52:14;;;;;;;;;;;;;;;20.49;46.94;100036.75;3134587;27;114665;-55
2020/12/15 03:53:45;;;;;;;;;;;;;;;20.50;46.75;100032.78;3133050;27;114632;-55
2020/12/15 03:55:21;;;;;;;;;;;;;;;20.49;46.78;100039.56;3134914;27;116685;-55
2020/12/15 03:56:53;;;;;;;;;;;;;;;20.47;46.87;100044.69;3134673;27;115659;-55
2020/12/15 03:58:24;;;;;;;;;;;;;;;20.45;46.81;100038.56;3134127;27;114794;-55
2020/12/15 03:59:55;;;;;;;;;;;;;;;20.43;46.70;100040.88;3130144;27;115124;-54
2020/12/15 04:01:26;;;;;;;;;;;;;;;20.44;46.66;100050.13;3128047;27;115757;-55
2020/12/15 04:02:57;;;;;;;;;;;;;;;20.43;46.94;100043.69;3132866;27;114632;-55
2020/12/15 04:04:28;;;;;;;;;;;;;;;20.42;46.91;100047.66;3136573;27;115867;-55
2020/12/15 04:05:59;;;;;;;;;;;;;;;20.40;46.75;100045.16;3134248;27;114293;-55
2020/12/15 04:07:30;;;;;;;;;;;;;;;20.39;46.91;100053.94;3134985;27;113744;-55
2020/12/15 04:09:01;;;;;;;;;;;;;;;20.38;46.91;100047.50;3132959;27;113929;-55
2020/12/15 04:10:33;;;;;;;;;;;;;;;20.36;47.13;100049.78;3134287;27;113783;-55
2020/12/15 04:12:05;;;;;;;;;;;;;;;20.35;47.02;100045.31;3135252;27;113886;-54
2020/12/15 04:13:36;;;;;;;;;;;;;;;20.36;46.98;100043.34;3133337;27;113928;-54
2020/12/15 04:15:07;;;;;;;;;;;;;;;20.36;46.68;100046.97;3134212;27;114506;-55
2020/12/15 04:16:38;;;;;;;;;;;;;;;20.35;46.99;100053.75;3133916;27;114717;-54
2020/12/15 04:18:09;;;;;;;;;;;;;;;20.35;47.02;100050.13;3134843;27;114347;-54
2020/12/15 04:19:41;;;;;;;;;;;;;;;20.33;46.94;100047.66;3119830;27;114386;-54
2020/12/15 04:21:12;;;;;;;;;;;;;;;20.32;47.21;100047.97;3130223;27;113992;-54
2020/12/15 04:22:43;;;;;;;;;;;;;;;20.31;47.15;100046.31;3131117;27;113900;-54
2020/12/15 04:24:14;;;;;;;;;;;;;;;20.31;46.84;100040.69;3133486;27;114735;-55
2020/12/15 04:25:55;;;;;;;;;;;;;;;20.30;46.91;100042.72;3138084;27;114336;-54
2020/12/15 04:27:27;;;;;;;;;;;;;;;20.29;46.99;100043.81;3134890;27;114275;-54
2020/12/15 04:28:58;;;;;;;;;;;;;;;20.26;47.24;100038.84;3120370;27;115143;-58
2020/12/15 04:30:29;;;;;;;;;;;;;;;20.25;47.21;100033.59;3129676;27;114236;-58
2020/12/15 04:32:00;;;;;;;;;;;;;;;20.24;46.94;100034.72;3133693;27;115285;-58
2020/12/15 04:33:31;;;;;;;;;;;;;;;20.23;46.95;100039.50;3132979;27;114138;-59
2020/12/15 04:35:03;;;;;;;;;;;;;;;20.23;47.02;100042.31;3121546;27;114769;-58
2020/12/15 04:36:34;;;;;;;;;;;;;;;20.24;46.98;100037.53;3132860;27;114511;-58
2020/12/15 04:38:06;;;;;;;;;;;;;;;20.23;47.17;100038.69;3134338;27;115046;-59
2020/12/15 04:39:37;;;;;;;;;;;;;;;20.22;47.30;100048.25;3133483;27;115681;-58
2020/12/15 04:41:08;;;;;;;;;;;;;;;20.20;47.15;100040.19;3135256;27;115254;-59
2020/12/15 04:42:40;;;;;;;;;;;;;;;20.20;47.46;100048.59;3114717;27;114384;-58
2020/12/15 04:44:11;;;;;;;;;;;;;;;20.21;47.03;100047.44;3120744;27;114852;-58
2020/12/15 04:45:44;;;;;;;;;;;;;;;20.20;47.14;100047.78;3133674;27;115617;-58
2020/12/15 04:47:16;;;;;;;;;;;;;;;20.17;46.89;100056.84;3124429;27;115452;-58
2020/12/15 04:48:51;;;;;;;;;;;;;;;20.20;47.08;100053.38;3128155;27;114815;-58
2020/12/15 04:50:23;;;;;;;;;;;;;;;20.17;46.95;100049.22;3133967;27;114903;-59
2020/12/15 04:52:01;;;;;;;;;;;;;;;20.16;47.11;100056.03;3134238;27;115383;-58
2020/12/15 04:53:35;;;;;;;;;;;;;;;20.17;47.15;100062.47;3130351;27;114607;-59
2020/12/15 04:55:07;;;;;;;;;;;;;;;20.15;47.09;100057.16;3134784;27;115986;-59
2020/12/15 04:56:42;;;;;;;;;;;;;;;20.17;47.16;100062.47;3134627;27;116244;-59
2020/12/15 04:58:18;;;;;;;;;;;;;;;20.14;47.03;100069.53;3133904;27;114990;-58
2020/12/15 04:59:49;;;;;;;;;;;;;;;20.14;47.20;100075.13;3134680;27;116802;-58
2020/12/15 05:01:21;;;;;;;;;;;;;;;20.13;47.17;100075.47;3132971;27;116246;-59
2020/12/15 05:02:53;;;;;;;;;;;;;;;20.14;47.04;100074.31;3133471;27;116627;-59
2020/12/15 05:04:25;;;;;;;;;;;;;;;20.13;46.81;100067.88;3130401;27;115493;-59
2020/12/15 05:05:57;;;;;;;;;;;;;;;20.12;46.82;100071.84;3134274;27;114620;-60
2020/12/15 05:07:30;;;;;;;;;;;;;;;20.10;46.99;100073.31;3134207;27;115524;-60
2020/12/15 05:09:02;;;;;;;;;;;;;;;20.08;47.09;100075.63;3126658;27;115423;-59
2020/12/15 05:10:33;;;;;;;;;;;;;;;20.06;47.16;100073.16;3121165;27;113959;-59
2020/12/15 05:12:05;;;;;;;;;;;;;;;20.06;47.02;100073.16;3109972;27;114706;-59
2020/12/15 05:13:37;;;;;;;;;;;;;;;20.04;47.08;100075.44;3128648;27;114776;-60
2020/12/15 05:15:08;;;;;;;;;;;;;;;20.04;46.96;100075.44;3120757;27;114446;-60
2020/12/15 05:16:43;;;;;;;;;;;;;;;20.04;47.01;100077.41;3129656;27;113935;-59
2020/12/15 05:18:19;;;;;;;;;;;;;;;20.03;47.14;100078.59;3130088;27;113809;-60
2020/12/15 05:19:50;;;;;;;;;;;;;;;20.03;47.08;100079.41;3127520;27;114817;-60
2020/12/15 05:21:21;;;;;;;;;;;;;;;20.03;47.00;100082.22;3133494;27;114220;-60
2020/12/15 05:22:53;;;;;;;;;;;;;;;20.07;47.40;100079.59;3132504;27;113638;-60
2020/12/15 05:24:28;;;;;;;;;;;;;;;20.10;47.19;100082.56;3133494;27;115913;-59
2020/12/15 05:26:03;;;;;;;;;;;;;;;20.14;47.35;100082.72;3133770;27;113862;-59
2020/12/15 05:27:40;;;;;;;;;;;;;;;20.18;47.17;100083.72;3134495;27;113912;-59
2020/12/15 05:29:17;;;;;;;;;;;;;;;20.22;47.49;100082.72;3132218;27;113894;-59
2020/12/15 05:30:58;;;;;;;;;;;;;;;20.25;47.44;100090.53;3130287;27;113964;-59
2020/12/15 05:32:29;;;;;;;;;;;;;;;20.31;47.53;100091.19;3136112;27;114433;-59
2020/12/15 05:34:02;;;;;;;;;;;;;;;20.35;47.42;100095.03;3132759;27;115339;-59
2020/12/15 05:35:35;;;;;;;;;;;;;;;20.38;47.35;100094.34;3134135;27;115365;-60
2020/12/15 05:37:06;;;;;;;;;;;;;;;20.43;47.46;100091.41;3134495;27;115361;-59
2020/12/15 05:38:37;;;;;;;;;;;;;;;20.47;47.74;100100.81;3118588;27;115959;-59
2020/12/15 05:40:08;;;;;;;;;;;;;;;20.52;47.85;100108.22;3129734;27;114976;-60
2020/12/15 05:41:40;;;;;;;;;;;;;;;20.56;47.88;100100.81;3133170;27;114394;-59
2020/12/15 05:43:11;;;;;;;;;;;;;;;20.60;48.01;100104.59;3133814;27;114104;-59
2020/12/15 05:44:43;;;;;;;;;;;;;;;20.65;48.13;100107.25;3134004;27;115163;-60
2020/12/15 05:46:17;;;;;;;;;;;;;;;20.69;48.21;100109.06;3132775;27;114537;-59
2020/12/15 05:47:49;;;;;;;;;;;;;;;20.72;47.96;100102.78;3135515;27;114425;-59
2020/12/15 05:49:27;;;;;;;;;;;;;;;20.77;48.02;100102.63;3134967;27;114132;-59
2020/12/15 05:50:59;;;;;;;;;;;;;;;20.82;47.93;100102.47;3131779;27;114626;-59
2020/12/15 05:52:30;;;;;;;;;;;;;;;20.86;47.96;100103.44;3128323;27;114359;-59
2020/12/15 05:54:07;;;;;;;;;;;;;;;20.90;47.81;100097.16;3137499;27;114214;-59
2020/12/15 05:55:39;;;;;;;;;;;;;;;20.96;47.92;100104.25;3136297;27;115837;-60
2020/12/15 05:57:10;;;;;;;;;;;;;;;21.00;47.59;100105.25;3136971;27;115619;-60
2020/12/15 05:58:51;;;;;;;;;;;;;;;21.03;47.68;100104.59;3134815;27;115821;-59
2020/12/15 06:00:26;;;;;;;;;;;;;;;21.07;47.38;100111.19;3134826;27;115053;-59
2020/12/15 06:02:07;;;;;;;;;;;;;;;21.11;47.38;100103.75;3134078;27;115744;-59
2020/12/15 06:03:39;;;;;;;;;;;;;;;21.15;47.00;100108.41;3132984;27;115654;-59
2020/12/15 06:05:10;;;;;;;;;;;;;;;21.20;47.49;100118.66;3136783;27;117085;-59
2020/12/15 06:06:42;;;;;;;;;;;;;;;21.22;47.50;100113.50;3135835;27;114850;-59
2020/12/15 06:08:14;;;;;;;;;;;;;;;21.26;46.77;100112.50;3134106;27;114773;-59
2020/12/15 06:09:47;;;;;;;;;;;;;;;21.30;46.69;100115.50;3134192;27;115350;-59
2020/12/15 06:11:21;;;;;;;;;;;;;;;21.31;47.33;100122.75;3133835;27;116403;-59
2020/12/15 06:12:59;;;;;;;;;;;;;;;21.36;46.82;100118.94;3133849;27;115713;-59
2020/12/15 06:14:30;;;;;;;;;;;;;;;21.39;46.76;100126.72;3135382;27;114638;-59
2020/12/15 06:16:02;;;;;;;;;;;;;;;21.42;46.79;100120.41;3139269;27;115760;-59
2020/12/15 06:17:35;;;;;;;;;;;;;;;21.45;46.36;100114.09;3135918;27;114574;-59
2020/12/15 06:19:10;;;;;;;;;;;;;;;21.47;46.63;100118.25;3125075;27;114089;-59
2020/12/15 06:20:42;;;;;;;;;;;;;;;21.51;46.69;100122.03;3134370;27;114860;-59
2020/12/15 06:22:13;;;;;;;;;;;;;;;21.53;46.64;100121.72;3135683;27;114449;-59
2020/12/15 06:23:44;;;;;;;;;;;;;;;21.56;46.38;100121.88;3134242;27;114826;-59
2020/12/15 06:25:32;;;;;;;;;;;;;;;21.60;46.13;100119.19;3136384;27;114060;-59
2020/12/15 06:27:04;;;;;;;;;;;;;;;21.62;46.58;100120.50;3133562;27;114240;-59
2020/12/15 06:28:35;;;;;;;;;;;;;;;21.66;46.55;100120.69;3134529;27;114284;-59
2020/12/15 06:30:06;;;;;;;;;;;;;;;21.68;46.06;100133.22;3136145;27;114308;-59
2020/12/15 06:31:37;;;;;;;;;;;;;;;21.70;46.27;100127.28;3133129;27;115370;-59
2020/12/15 06:33:10;;;;;;;;;;;;;;;21.74;46.16;100139.50;3136413;27;114315;-59
2020/12/15 06:34:43;;;;;;;;;;;;;;;21.77;45.78;100136.00;3124677;27;114212;-59
2020/12/15 06:36:22;;;;;;;;;;;;;;;21.78;45.56;100139.63;3130928;27;114286;-59
2020/12/15 06:37:53;;;;;;;;;;;;;;;21.81;45.86;100138.94;3138874;27;114172;-59
2020/12/15 06:39:26;;;;;;;;;;;;;;;21.84;45.52;100138.31;3134193;27;115267;-60
2020/12/15 06:40:57;;;;;;;;;;;;;;;21.86;45.30;100133.16;3136395;27;115098;-59
2020/12/15 06:42:28;;;;;;;;;;;;;;;21.89;45.41;100138.13;3136292;27;115911;-59
2020/12/15 06:44:05;;;;;;;;;;;;;;;21.90;45.18;100131.31;3134498;27;114696;-59
2020/12/15 06:45:36;;;;;;;;;;;;;;;21.92;45.03;100121.38;3121966;27;114042;-59
2020/12/15 06:47:07;;;;;;;;;;;;;;;21.95;45.10;100128.34;3129985;27;115350;-59
2020/12/15 06:48:39;;;;;;;;;;;;;;;21.98;45.08;100128.50;3134959;27;114071;-59
2020/12/15 06:50:11;;;;;;;;;;;;;;;22.00;45.16;100114.91;3123348;27;115017;-59
2020/12/15 06:51:42;;;;;;;;;;;;;;;22.04;45.62;100123.50;3119503;27;114666;-60
2020/12/15 06:53:17;;;;;;;;;;;;;;;22.05;45.26;100133.59;3130129;27;114308;-59
2020/12/15 06:54:55;;;;;;;;;;;;;;;22.07;45.12;100126.47;3134868;27;115149;-59
2020/12/15 06:56:26;;;;;;;;;;;;;;;22.10;45.10;100130.59;3127955;27;115012;-59
2020/12/15 06:58:00;;;;;;;;;;;;;;;22.12;44.97;100139.53;3130727;27;115127;-58
2020/12/15 06:59:39;;;;;;;;;;;;;;;22.14;44.94;100129.56;3135240;27;115923;-59
2020/12/15 07:01:18;;;;;;;;;;;;;;;22.17;44.86;100137.34;3134864;27;115838;-58
2020/12/15 07:02:51;;;;;;;;;;;;;;;22.20;45.08;100137.84;3132892;27;115925;-59
2020/12/15 07:04:22;;;;;;;;;;;;;;;22.21;44.89;100143.13;3135011;27;115939;-58
2020/12/15 07:05:53;;;;;;;;;;;;;;;22.23;45.16;100137.97;3135286;27;115727;-58
2020/12/15 07:07:45;;;;;;;;;;;;;;;22.25;45.21;100137.63;3133815;27;114740;-58
2020/12/15 07:09:24;;;;;;;;;;;;;;;22.28;44.96;100142.56;3124760;27;115913;-59
2020/12/15 07:10:58;;;;;;;;;;;;;;;22.30;44.84;100143.91;3135916;27;115795;-60
2020/12/15 07:12:29;;;;;;;;;;;;;;;22.33;44.66;100143.22;3135104;27;115866;-59
2020/12/15 07:14:11;;;;;;;;;;;;;;;22.35;44.68;100143.69;3133753;27;115868;-59
2020/12/15 07:15:42;;;;;;;;;;;;;;;22.37;44.51;100160.25;3134347;27;115139;-54
2020/12/15 07:17:14;;;;;;;;;;;;;;;22.38;44.49;100161.91;3135979;27;116354;-54
2020/12/15 07:18:46;;;;;;;;;;;;;;;22.47;44.49;100168.31;3126364;27;115844;-54
2020/12/15 07:20:18;;;;;;;;;;;;;;;22.43;44.43;100156.91;3133993;27;114697;-54
2020/12/15 07:21:49;;;;;;;;;;;;;;;22.43;44.31;100159.72;3135650;27;114744;-54
2020/12/15 07:23:21;;;;;;;;;;;;;;;22.45;44.17;100159.34;3136824;27;115749;-54
2020/12/15 07:24:52;;;;;;;;;;;;;;;22.47;44.15;100160.69;3134902;27;114062;-54
2020/12/15 07:26:23;;;;;;;;;;;;;;;22.48;44.14;100167.97;3122081;27;114478;-54
2020/12/15 07:27:54;;;;;;;;;;;;;;;22.49;43.99;100172.41;3131140;27;113995;-54
2020/12/15 07:29:25;;;;;;;;;;;;;;;22.51;44.11;100172.91;3122108;27;113809;-54
2020/12/15 07:30:56;;;;;;;;;;;;;;;22.53;43.85;100169.75;3134733;27;114129;-54
2020/12/15 07:32:27;;;;;;;;;;;;;;;22.56;43.73;100181.16;3135460;27;116772;-54
2020/12/15 07:34:09;;;;;;;;;;;;;;;22.57;43.82;100170.72;3134497;27;114628;-55
2020/12/15 07:35:40;;;;;;;;;;;;;;;22.58;43.89;100167.53;3135307;27;114103;-54
2020/12/15 07:37:17;;;;;;;;;;;;;;;22.59;44.04;100174.00;3135350;27;114141;-53
2020/12/15 07:38:49;;;;;;;;;;;;;;;22.59;44.09;100165.56;3132457;27;114255;-53
2020/12/15 07:40:20;;;;;;;;;;;;;;;22.60;43.96;100164.41;3121832;27;114669;-54
2020/12/15 07:42:01;;;;;;;;;;;;;;;22.58;44.08;100173.19;3131271;27;114345;-53
2020/12/15 07:43:54;;;;;;;;;;;;;;;22.58;44.21;100167.53;3129026;27;114118;-54
2020/12/15 07:45:26;;;;;;;;;;;;;;;22.59;44.42;100179.63;3138958;27;114165;-54
2020/12/15 07:46:57;;;;;;;;;;;;;;;22.59;44.44;100182.47;3135488;27;114260;-54
2020/12/15 07:48:29;;;;;;;;;;;;;;;22.58;44.22;100176.00;3133561;27;115369;-54
2020/12/15 07:50:01;;;;;;;;;;;;;;;22.59;44.28;100177.66;3135862;27;114998;-56
2020/12/15 07:51:33;;;;;;;;;;;;;;;22.59;44.16;100193.72;3135056;27;115710;-56